sensor_id;sensor_type;location;lat;lon;timestamp;P1;durP1;ratioP1;P2;durP2;ratioP2
17618;SDS011;8928;51.678;6.074;2023-04-24T00:02:07;6.47;;;3.43;;
17618;SDS011;8928;51.678;6.074;2023-04-24T00:04:56;6.27;;;3.33;;
17618;SDS011;8928;51.678;6.074;2023-04-24T00:07:47;4.73;;;3.17;;
17618;SDS011;8928;51.678;6.074;2023-04-24T00:10:37;6.03;;;3.47;;
17618;SDS011;8928;51.678;6.074;2023-04-24T00:13:24;5.77;;;3.50;;
17618;SDS011;8928;51.678;6.074;2023-04-24T00:16:13;6.27;;;4.30;;
17618;SDS011;8928;51.678;6.074;2023-04-24T00:19:02;7.40;;;4.50;;
17618;SDS011;8928;51.678;6.074;2023-04-24T00:21:51;6.83;;;5.17;;
17618;SDS011;8928;51.678;6.074;2023-04-24T00:24:38;10.03;;;6.20;;
17618;SDS011;8928;51.678;6.074;2023-04-24T00:27:25;9.20;;;5.83;;
17618;SDS011;8928;51.678;6.074;2023-04-24T00:30:12;11.80;;;6.83;;
17618;SDS011;8928;51.678;6.074;2023-04-24T00:32:59;15.10;;;7.80;;
17618;SDS011;8928;51.678;6.074;2023-04-24T00:35:48;14.20;;;8.27;;
17618;SDS011;8928;51.678;6.074;2023-04-24T00:38:35;14.63;;;9.00;;
17618;SDS011;8928;51.678;6.074;2023-04-24T00:41:22;18.27;;;9.83;;
17618;SDS011;8928;51.678;6.074;2023-04-24T00:44:10;20.60;;;10.27;;
17618;SDS011;8928;51.678;6.074;2023-04-24T00:46:57;19.93;;;10.07;;
17618;SDS011;8928;51.678;6.074;2023-04-24T00:49:46;17.73;;;10.87;;
17618;SDS011;8928;51.678;6.074;2023-04-24T00:52:34;19.23;;;11.47;;
17618;SDS011;8928;51.678;6.074;2023-04-24T00:55:21;22.20;;;13.00;;
17618;SDS011;8928;51.678;6.074;2023-04-24T00:58:08;20.67;;;12.47;;
17618;SDS011;8928;51.678;6.074;2023-04-24T01:00:55;22.17;;;13.17;;
17618;SDS011;8928;51.678;6.074;2023-04-24T01:03:43;24.43;;;13.20;;
17618;SDS011;8928;51.678;6.074;2023-04-24T01:06:30;22.57;;;12.80;;
17618;SDS011;8928;51.678;6.074;2023-04-24T01:09:19;26.43;;;13.70;;
17618;SDS011;8928;51.678;6.074;2023-04-24T01:12:08;25.80;;;13.77;;
17618;SDS011;8928;51.678;6.074;2023-04-24T01:14:55;24.63;;;13.53;;
17618;SDS011;8928;51.678;6.074;2023-04-24T01:17:43;24.60;;;13.93;;
17618;SDS011;8928;51.678;6.074;2023-04-24T01:20:30;31.93;;;14.10;;
17618;SDS011;8928;51.678;6.074;2023-04-24T01:23:19;26.00;;;14.27;;
17618;SDS011;8928;51.678;6.074;2023-04-24T01:26:06;24.87;;;13.43;;
17618;SDS011;8928;51.678;6.074;2023-04-24T01:28:53;27.63;;;13.57;;
17618;SDS011;8928;51.678;6.074;2023-04-24T01:31:41;24.07;;;13.40;;
17618;SDS011;8928;51.678;6.074;2023-04-24T01:34:28;29.93;;;13.60;;
17618;SDS011;8928;51.678;6.074;2023-04-24T01:37:16;25.03;;;13.87;;
17618;SDS011;8928;51.678;6.074;2023-04-24T01:40:05;32.27;;;14.23;;
17618;SDS011;8928;51.678;6.074;2023-04-24T01:42:53;24.60;;;14.03;;
17618;SDS011;8928;51.678;6.074;2023-04-24T01:45:40;26.97;;;13.53;;
17618;SDS011;8928;51.678;6.074;2023-04-24T01:48:27;29.60;;;13.60;;
17618;SDS011;8928;51.678;6.074;2023-04-24T01:51:15;27.23;;;14.30;;
17618;SDS011;8928;51.678;6.074;2023-04-24T01:54:02;28.27;;;14.43;;
17618;SDS011;8928;51.678;6.074;2023-04-24T01:56:51;28.17;;;15.27;;
17618;SDS011;8928;51.678;6.074;2023-04-24T01:59:39;31.57;;;14.90;;
17618;SDS011;8928;51.678;6.074;2023-04-24T02:02:26;36.97;;;15.57;;
17618;SDS011;8928;51.678;6.074;2023-04-24T02:05:14;29.50;;;15.87;;
17618;SDS011;8928;51.678;6.074;2023-04-24T02:08:01;32.47;;;15.73;;
17618;SDS011;8928;51.678;6.074;2023-04-24T02:10:48;32.50;;;16.17;;
17618;SDS011;8928;51.678;6.074;2023-04-24T02:13:36;34.37;;;16.73;;
17618;SDS011;8928;51.678;6.074;2023-04-24T02:16:23;31.57;;;17.33;;
17618;SDS011;8928;51.678;6.074;2023-04-24T02:19:10;33.30;;;17.30;;
17618;SDS011;8928;51.678;6.074;2023-04-24T02:21:57;36.37;;;18.77;;
17618;SDS011;8928;51.678;6.074;2023-04-24T02:24:44;34.17;;;18.10;;
17618;SDS011;8928;51.678;6.074;2023-04-24T02:27:31;41.77;;;20.53;;
17618;SDS011;8928;51.678;6.074;2023-04-24T02:30:20;41.67;;;19.90;;
17618;SDS011;8928;51.678;6.074;2023-04-24T02:33:07;40.27;;;20.30;;
17618;SDS011;8928;51.678;6.074;2023-04-24T02:35:54;39.13;;;21.17;;
17618;SDS011;8928;51.678;6.074;2023-04-24T02:38:41;44.90;;;21.00;;
17618;SDS011;8928;51.678;6.074;2023-04-24T02:41:28;42.53;;;20.50;;
17618;SDS011;8928;51.678;6.074;2023-04-24T02:44:17;40.13;;;21.03;;
17618;SDS011;8928;51.678;6.074;2023-04-24T02:47:05;39.13;;;21.33;;
17618;SDS011;8928;51.678;6.074;2023-04-24T02:49:52;41.90;;;22.33;;
17618;SDS011;8928;51.678;6.074;2023-04-24T02:52:39;50.87;;;22.80;;
17618;SDS011;8928;51.678;6.074;2023-04-24T02:55:26;50.10;;;23.03;;
17618;SDS011;8928;51.678;6.074;2023-04-24T02:58:14;47.53;;;23.53;;
17618;SDS011;8928;51.678;6.074;2023-04-24T03:01:01;52.67;;;24.03;;
17618;SDS011;8928;51.678;6.074;2023-04-24T03:03:49;53.17;;;23.93;;
17618;SDS011;8928;51.678;6.074;2023-04-24T03:06:36;51.00;;;24.53;;
17618;SDS011;8928;51.678;6.074;2023-04-24T03:09:24;45.77;;;23.47;;
17618;SDS011;8928;51.678;6.074;2023-04-24T03:12:11;48.97;;;23.90;;
17618;SDS011;8928;51.678;6.074;2023-04-24T03:14:58;47.97;;;24.67;;
17618;SDS011;8928;51.678;6.074;2023-04-24T03:17:45;43.30;;;23.30;;
17618;SDS011;8928;51.678;6.074;2023-04-24T03:20:34;54.70;;;25.63;;
17618;SDS011;8928;51.678;6.074;2023-04-24T03:23:22;47.57;;;24.87;;
17618;SDS011;8928;51.678;6.074;2023-04-24T03:26:09;44.30;;;24.10;;
17618;SDS011;8928;51.678;6.074;2023-04-24T03:28:56;47.13;;;24.57;;
17618;SDS011;8928;51.678;6.074;2023-04-24T03:31:43;54.57;;;25.23;;
17618;SDS011;8928;51.678;6.074;2023-04-24T03:34:30;50.53;;;24.43;;
17618;SDS011;8928;51.678;6.074;2023-04-24T03:37:18;50.43;;;24.93;;
17618;SDS011;8928;51.678;6.074;2023-04-24T03:40:06;48.20;;;24.50;;
17618;SDS011;8928;51.678;6.074;2023-04-24T03:42:54;48.80;;;24.77;;
17618;SDS011;8928;51.678;6.074;2023-04-24T03:45:41;54.70;;;25.57;;
17618;SDS011;8928;51.678;6.074;2023-04-24T03:48:28;55.70;;;25.53;;
17618;SDS011;8928;51.678;6.074;2023-04-24T03:51:15;55.30;;;25.33;;
17618;SDS011;8928;51.678;6.074;2023-04-24T03:54:04;57.80;;;25.77;;
17618;SDS011;8928;51.678;6.074;2023-04-24T03:56:51;50.50;;;24.90;;
17618;SDS011;8928;51.678;6.074;2023-04-24T03:59:38;48.13;;;24.33;;
17618;SDS011;8928;51.678;6.074;2023-04-24T04:02:25;52.10;;;24.17;;
17618;SDS011;8928;51.678;6.074;2023-04-24T04:05:12;50.33;;;24.50;;
17618;SDS011;8928;51.678;6.074;2023-04-24T04:07:59;48.27;;;24.13;;
17618;SDS011;8928;51.678;6.074;2023-04-24T04:10:47;50.50;;;22.97;;
17618;SDS011;8928;51.678;6.074;2023-04-24T04:13:34;51.93;;;23.70;;
17618;SDS011;8928;51.678;6.074;2023-04-24T04:16:21;47.27;;;23.27;;
17618;SDS011;8928;51.678;6.074;2023-04-24T04:19:08;54.00;;;22.37;;
17618;SDS011;8928;51.678;6.074;2023-04-24T04:21:55;52.50;;;23.17;;
17618;SDS011;8928;51.678;6.074;2023-04-24T04:24:42;46.23;;;22.23;;
17618;SDS011;8928;51.678;6.074;2023-04-24T04:27:31;49.27;;;22.87;;
17618;SDS011;8928;51.678;6.074;2023-04-24T04:30:19;54.17;;;22.73;;
17618;SDS011;8928;51.678;6.074;2023-04-24T04:33:06;44.53;;;22.00;;
17618;SDS011;8928;51.678;6.074;2023-04-24T04:35:53;39.83;;;20.90;;
17618;SDS011;8928;51.678;6.074;2023-04-24T04:38:41;39.10;;;20.33;;
17618;SDS011;8928;51.678;6.074;2023-04-24T04:41:29;41.77;;;20.53;;
17618;SDS011;8928;51.678;6.074;2023-04-24T04:44:18;38.63;;;20.77;;
17618;SDS011;8928;51.678;6.074;2023-04-24T04:47:05;37.07;;;19.63;;
17618;SDS011;8928;51.678;6.074;2023-04-24T04:49:54;39.50;;;19.43;;
17618;SDS011;8928;51.678;6.074;2023-04-24T04:52:41;39.40;;;19.20;;
17618;SDS011;8928;51.678;6.074;2023-04-24T04:55:28;36.70;;;18.80;;
17618;SDS011;8928;51.678;6.074;2023-04-24T04:58:15;40.93;;;19.43;;
17618;SDS011;8928;51.678;6.074;2023-04-24T05:01:04;36.63;;;19.00;;
17618;SDS011;8928;51.678;6.074;2023-04-24T05:03:52;38.27;;;18.47;;
17618;SDS011;8928;51.678;6.074;2023-04-24T05:06:39;34.90;;;18.13;;
17618;SDS011;8928;51.678;6.074;2023-04-24T05:09:26;33.97;;;18.83;;
17618;SDS011;8928;51.678;6.074;2023-04-24T05:12:14;33.80;;;17.63;;
17618;SDS011;8928;51.678;6.074;2023-04-24T05:15:01;35.13;;;17.40;;
17618;SDS011;8928;51.678;6.074;2023-04-24T05:17:50;31.87;;;17.53;;
17618;SDS011;8928;51.678;6.074;2023-04-24T05:20:37;34.80;;;17.27;;
17618;SDS011;8928;51.678;6.074;2023-04-24T05:23:24;29.63;;;16.70;;
17618;SDS011;8928;51.678;6.074;2023-04-24T05:26:11;29.43;;;16.30;;
17618;SDS011;8928;51.678;6.074;2023-04-24T05:28:59;28.80;;;15.50;;
17618;SDS011;8928;51.678;6.074;2023-04-24T05:31:46;31.07;;;16.33;;
17618;SDS011;8928;51.678;6.074;2023-04-24T05:34:35;29.87;;;15.93;;
17618;SDS011;8928;51.678;6.074;2023-04-24T05:37:22;28.00;;;15.20;;
17618;SDS011;8928;51.678;6.074;2023-04-24T05:40:09;23.77;;;15.10;;
17618;SDS011;8928;51.678;6.074;2023-04-24T05:42:57;26.77;;;14.70;;
17618;SDS011;8928;51.678;6.074;2023-04-24T05:45:44;27.07;;;14.83;;
17618;SDS011;8928;51.678;6.074;2023-04-24T05:48:31;33.57;;;15.77;;
17618;SDS011;8928;51.678;6.074;2023-04-24T05:51:19;27.17;;;14.23;;
17618;SDS011;8928;51.678;6.074;2023-04-24T05:54:06;23.83;;;14.13;;
17618;SDS011;8928;51.678;6.074;2023-04-24T05:56:53;28.33;;;15.17;;
17618;SDS011;8928;51.678;6.074;2023-04-24T05:59:41;28.03;;;15.00;;
17618;SDS011;8928;51.678;6.074;2023-04-24T06:02:28;27.60;;;14.77;;
17618;SDS011;8928;51.678;6.074;2023-04-24T06:05:17;26.73;;;13.53;;
17618;SDS011;8928;51.678;6.074;2023-04-24T06:10:34;25.37;;;13.93;;
17618;SDS011;8928;51.678;6.074;2023-04-24T06:13:21;23.00;;;13.27;;
17618;SDS011;8928;51.678;6.074;2023-04-24T06:16:08;20.87;;;12.77;;
17618;SDS011;8928;51.678;6.074;2023-04-24T06:18:55;22.23;;;12.10;;
17618;SDS011;8928;51.678;6.074;2023-04-24T06:21:42;20.87;;;11.53;;
17618;SDS011;8928;51.678;6.074;2023-04-24T06:24:29;20.80;;;11.57;;
17618;SDS011;8928;51.678;6.074;2023-04-24T06:27:18;20.33;;;11.77;;
17618;SDS011;8928;51.678;6.074;2023-04-24T06:30:05;19.13;;;11.10;;
17618;SDS011;8928;51.678;6.074;2023-04-24T06:32:53;17.70;;;10.97;;
17618;SDS011;8928;51.678;6.074;2023-04-24T06:35:40;18.70;;;10.67;;
17618;SDS011;8928;51.678;6.074;2023-04-24T06:38:27;19.50;;;10.93;;
17618;SDS011;8928;51.678;6.074;2023-04-24T06:41:15;19.17;;;10.90;;
17618;SDS011;8928;51.678;6.074;2023-04-24T06:44:04;16.00;;;10.23;;
17618;SDS011;8928;51.678;6.074;2023-04-24T06:46:51;17.23;;;10.13;;
17618;SDS011;8928;51.678;6.074;2023-04-24T06:49:38;15.63;;;9.63;;
17618;SDS011;8928;51.678;6.074;2023-04-24T06:52:26;14.97;;;8.60;;
17618;SDS011;8928;51.678;6.074;2023-04-24T06:55:13;13.03;;;7.13;;
17618;SDS011;8928;51.678;6.074;2023-04-24T06:58:01;11.20;;;6.90;;
17618;SDS011;8928;51.678;6.074;2023-04-24T07:00:53;13.03;;;6.70;;
17618;SDS011;8928;51.678;6.074;2023-04-24T07:03:40;9.30;;;5.10;;
17618;SDS011;8928;51.678;6.074;2023-04-24T07:06:27;6.57;;;4.13;;
17618;SDS011;8928;51.678;6.074;2023-04-24T07:09:17;6.73;;;4.20;;
17618;SDS011;8928;51.678;6.074;2023-04-24T07:12:04;7.80;;;4.47;;
17618;SDS011;8928;51.678;6.074;2023-04-24T07:14:51;8.57;;;4.10;;
17618;SDS011;8928;51.678;6.074;2023-04-24T07:17:39;7.63;;;3.53;;
17618;SDS011;8928;51.678;6.074;2023-04-24T07:20:28;6.50;;;3.60;;
17618;SDS011;8928;51.678;6.074;2023-04-24T07:23:16;9.73;;;3.57;;
17618;SDS011;8928;51.678;6.074;2023-04-24T07:26:03;8.40;;;3.03;;
17618;SDS011;8928;51.678;6.074;2023-04-24T07:28:51;5.37;;;2.70;;
17618;SDS011;8928;51.678;6.074;2023-04-24T07:31:38;4.93;;;2.23;;
17618;SDS011;8928;51.678;6.074;2023-04-24T07:34:27;2.90;;;1.97;;
17618;SDS011;8928;51.678;6.074;2023-04-24T07:37:14;3.87;;;1.57;;
17618;SDS011;8928;51.678;6.074;2023-04-24T07:40:01;2.80;;;1.40;;
17618;SDS011;8928;51.678;6.074;2023-04-24T07:42:49;4.73;;;1.30;;
17618;SDS011;8928;51.678;6.074;2023-04-24T07:45:36;1.43;;;0.90;;
17618;SDS011;8928;51.678;6.074;2023-04-24T07:48:24;2.33;;;1.10;;
17618;SDS011;8928;51.678;6.074;2023-04-24T07:51:13;2.43;;;1.20;;
17618;SDS011;8928;51.678;6.074;2023-04-24T07:54:00;2.53;;;1.50;;
17618;SDS011;8928;51.678;6.074;2023-04-24T07:56:48;2.60;;;1.70;;
17618;SDS011;8928;51.678;6.074;2023-04-24T07:59:35;5.03;;;1.87;;
17618;SDS011;8928;51.678;6.074;2023-04-24T08:02:22;3.70;;;2.27;;
17618;SDS011;8928;51.678;6.074;2023-04-24T08:05:11;8.87;;;3.30;;
17618;SDS011;8928;51.678;6.074;2023-04-24T08:08:00;6.80;;;4.50;;
17618;SDS011;8928;51.678;6.074;2023-04-24T08:10:47;10.00;;;5.83;;
17618;SDS011;8928;51.678;6.074;2023-04-24T08:13:34;14.00;;;8.43;;
17618;SDS011;8928;51.678;6.074;2023-04-24T08:16:21;23.27;;;11.90;;
17618;SDS011;8928;51.678;6.074;2023-04-24T08:19:09;26.57;;;13.00;;
17618;SDS011;8928;51.678;6.074;2023-04-24T08:21:56;23.63;;;13.50;;
17618;SDS011;8928;51.678;6.074;2023-04-24T08:24:44;27.07;;;13.57;;
17618;SDS011;8928;51.678;6.074;2023-04-24T08:27:31;26.73;;;13.20;;
17618;SDS011;8928;51.678;6.074;2023-04-24T08:30:18;27.50;;;13.50;;
17618;SDS011;8928;51.678;6.074;2023-04-24T08:33:05;25.87;;;13.40;;
17618;SDS011;8928;51.678;6.074;2023-04-24T08:35:52;28.57;;;13.77;;
17618;SDS011;8928;51.678;6.074;2023-04-24T08:38:40;24.73;;;13.10;;
17618;SDS011;8928;51.678;6.074;2023-04-24T08:41:29;30.80;;;13.90;;
17618;SDS011;8928;51.678;6.074;2023-04-24T08:44:17;35.63;;;15.20;;
17618;SDS011;8928;51.678;6.074;2023-04-24T08:47:06;27.23;;;13.77;;
17618;SDS011;8928;51.678;6.074;2023-04-24T08:49:54;31.87;;;13.83;;
17618;SDS011;8928;51.678;6.074;2023-04-24T08:52:44;28.43;;;13.40;;
17618;SDS011;8928;51.678;6.074;2023-04-24T08:55:31;27.63;;;12.93;;
17618;SDS011;8928;51.678;6.074;2023-04-24T08:58:20;28.27;;;12.63;;
17618;SDS011;8928;51.678;6.074;2023-04-24T09:01:07;31.03;;;12.33;;
17618;SDS011;8928;51.678;6.074;2023-04-24T09:03:55;30.33;;;12.07;;
17618;SDS011;8928;51.678;6.074;2023-04-24T09:06:43;39.20;;;12.33;;
17618;SDS011;8928;51.678;6.074;2023-04-24T09:09:30;35.70;;;11.90;;
17618;SDS011;8928;51.678;6.074;2023-04-24T09:12:19;43.27;;;14.30;;
17618;SDS011;8928;51.678;6.074;2023-04-24T09:15:09;31.33;;;11.43;;
17618;SDS011;8928;51.678;6.074;2023-04-24T09:17:57;36.83;;;12.70;;
17618;SDS011;8928;51.678;6.074;2023-04-24T09:20:57;31.47;;;10.40;;
17618;SDS011;8928;51.678;6.074;2023-04-24T09:23:45;30.20;;;9.40;;
17618;SDS011;8928;51.678;6.074;2023-04-24T09:26:33;24.63;;;8.73;;
17618;SDS011;8928;51.678;6.074;2023-04-24T09:29:22;27.77;;;8.43;;
17618;SDS011;8928;51.678;6.074;2023-04-24T09:32:20;27.10;;;7.53;;
17618;SDS011;8928;51.678;6.074;2023-04-24T09:35:08;35.87;;;7.33;;
17618;SDS011;8928;51.678;6.074;2023-04-24T09:37:57;20.33;;;6.50;;
17618;SDS011;8928;51.678;6.074;2023-04-24T09:40:44;27.60;;;6.83;;
17618;SDS011;8928;51.678;6.074;2023-04-24T09:43:32;23.10;;;6.13;;
17618;SDS011;8928;51.678;6.074;2023-04-24T09:46:19;26.80;;;6.10;;
17618;SDS011;8928;51.678;6.074;2023-04-24T09:49:12;27.47;;;5.80;;
17618;SDS011;8928;51.678;6.074;2023-04-24T09:52:04;23.60;;;5.93;;
17618;SDS011;8928;51.678;6.074;2023-04-24T09:54:52;29.33;;;6.40;;
17618;SDS011;8928;51.678;6.074;2023-04-24T09:57:49;24.43;;;5.80;;
17618;SDS011;8928;51.678;6.074;2023-04-24T10:00:37;23.40;;;5.30;;
17618;SDS011;8928;51.678;6.074;2023-04-24T10:03:24;20.53;;;4.87;;
17618;SDS011;8928;51.678;6.074;2023-04-24T10:06:14;16.93;;;4.43;;
17618;SDS011;8928;51.678;6.074;2023-04-24T10:09:02;16.37;;;4.20;;
17618;SDS011;8928;51.678;6.074;2023-04-24T10:11:50;22.20;;;4.07;;
17618;SDS011;8928;51.678;6.074;2023-04-24T10:14:38;17.60;;;4.20;;
17618;SDS011;8928;51.678;6.074;2023-04-24T10:17:26;14.93;;;3.97;;
17618;SDS011;8928;51.678;6.074;2023-04-24T10:20:14;15.50;;;3.70;;
17618;SDS011;8928;51.678;6.074;2023-04-24T10:23:03;11.90;;;3.40;;
17618;SDS011;8928;51.678;6.074;2023-04-24T10:25:51;13.40;;;3.57;;
17618;SDS011;8928;51.678;6.074;2023-04-24T10:28:40;11.60;;;3.03;;
17618;SDS011;8928;51.678;6.074;2023-04-24T10:31:31;12.07;;;2.37;;
17618;SDS011;8928;51.678;6.074;2023-04-24T10:34:18;10.67;;;2.50;;
17618;SDS011;8928;51.678;6.074;2023-04-24T10:37:08;11.70;;;2.73;;
17618;SDS011;8928;51.678;6.074;2023-04-24T10:39:56;12.90;;;2.73;;
17618;SDS011;8928;51.678;6.074;2023-04-24T10:42:44;11.10;;;2.67;;
17618;SDS011;8928;51.678;6.074;2023-04-24T10:45:34;12.80;;;3.07;;
17618;SDS011;8928;51.678;6.074;2023-04-24T10:48:26;12.93;;;3.07;;
17618;SDS011;8928;51.678;6.074;2023-04-24T10:51:14;10.60;;;2.70;;
17618;SDS011;8928;51.678;6.074;2023-04-24T10:54:04;12.70;;;2.53;;
17618;SDS011;8928;51.678;6.074;2023-04-24T10:57:28;8.30;;;2.30;;
17618;SDS011;8928;51.678;6.074;2023-04-24T11:00:18;8.80;;;2.67;;
17618;SDS011;8928;51.678;6.074;2023-04-24T11:03:09;11.07;;;2.90;;
17618;SDS011;8928;51.678;6.074;2023-04-24T11:06:09;9.73;;;2.50;;
17618;SDS011;8928;51.678;6.074;2023-04-24T11:09:01;10.30;;;2.23;;
17618;SDS011;8928;51.678;6.074;2023-04-24T11:11:51;11.20;;;2.17;;
17618;SDS011;8928;51.678;6.074;2023-04-24T11:15:01;7.20;;;1.83;;
17618;SDS011;8928;51.678;6.074;2023-04-24T11:17:48;8.63;;;2.00;;
17618;SDS011;8928;51.678;6.074;2023-04-24T11:20:36;7.47;;;1.77;;
17618;SDS011;8928;51.678;6.074;2023-04-24T11:23:27;8.70;;;1.53;;
17618;SDS011;8928;51.678;6.074;2023-04-24T11:26:22;7.10;;;1.77;;
17618;SDS011;8928;51.678;6.074;2023-04-24T11:29:15;7.43;;;1.40;;
17618;SDS011;8928;51.678;6.074;2023-04-24T11:32:15;5.73;;;1.30;;
17618;SDS011;8928;51.678;6.074;2023-04-24T11:35:04;4.13;;;1.40;;
17618;SDS011;8928;51.678;6.074;2023-04-24T11:37:54;6.17;;;1.30;;
17618;SDS011;8928;51.678;6.074;2023-04-24T11:40:41;6.40;;;1.40;;
17618;SDS011;8928;51.678;6.074;2023-04-24T11:43:28;6.07;;;1.60;;
17618;SDS011;8928;51.678;6.074;2023-04-24T11:46:16;7.00;;;1.70;;
17618;SDS011;8928;51.678;6.074;2023-04-24T11:49:05;5.90;;;1.77;;
17618;SDS011;8928;51.678;6.074;2023-04-24T11:51:54;9.00;;;1.40;;
17618;SDS011;8928;51.678;6.074;2023-04-24T11:54:46;9.73;;;1.77;;
17618;SDS011;8928;51.678;6.074;2023-04-24T11:57:34;7.93;;;1.80;;
17618;SDS011;8928;51.678;6.074;2023-04-24T12:00:22;5.97;;;1.70;;
17618;SDS011;8928;51.678;6.074;2023-04-24T12:03:11;5.97;;;1.57;;
17618;SDS011;8928;51.678;6.074;2023-04-24T12:06:09;5.27;;;1.57;;
17618;SDS011;8928;51.678;6.074;2023-04-24T12:08:57;7.17;;;1.63;;
17618;SDS011;8928;51.678;6.074;2023-04-24T12:11:52;4.37;;;1.20;;
17618;SDS011;8928;51.678;6.074;2023-04-24T12:14:42;4.77;;;1.50;;
17618;SDS011;8928;51.678;6.074;2023-04-24T12:17:31;5.17;;;1.40;;
17618;SDS011;8928;51.678;6.074;2023-04-24T12:20:23;6.23;;;1.30;;
17618;SDS011;8928;51.678;6.074;2023-04-24T12:23:12;3.67;;;1.30;;
17618;SDS011;8928;51.678;6.074;2023-04-24T12:25:59;4.80;;;1.40;;
17618;SDS011;8928;51.678;6.074;2023-04-24T12:28:49;4.83;;;1.60;;
17618;SDS011;8928;51.678;6.074;2023-04-24T12:31:36;6.47;;;1.60;;
17618;SDS011;8928;51.678;6.074;2023-04-24T12:34:25;7.27;;;1.60;;
17618;SDS011;8928;51.678;6.074;2023-04-24T12:37:12;5.27;;;1.60;;
17618;SDS011;8928;51.678;6.074;2023-04-24T12:40:02;3.97;;;1.50;;
17618;SDS011;8928;51.678;6.074;2023-04-24T12:42:52;4.60;;;1.60;;
17618;SDS011;8928;51.678;6.074;2023-04-24T12:45:39;7.37;;;1.50;;
17618;SDS011;8928;51.678;6.074;2023-04-24T12:48:26;10.77;;;1.90;;
17618;SDS011;8928;51.678;6.074;2023-04-24T12:51:13;5.87;;;2.00;;
17618;SDS011;8928;51.678;6.074;2023-04-24T12:54:00;6.77;;;1.90;;
17618;SDS011;8928;51.678;6.074;2023-04-24T12:56:48;6.27;;;1.63;;
17618;SDS011;8928;51.678;6.074;2023-04-24T12:59:36;5.97;;;1.50;;
17618;SDS011;8928;51.678;6.074;2023-04-24T13:02:24;6.53;;;1.63;;
17618;SDS011;8928;51.678;6.074;2023-04-24T13:05:13;6.03;;;1.57;;
17618;SDS011;8928;51.678;6.074;2023-04-24T13:08:00;6.90;;;1.83;;
17618;SDS011;8928;51.678;6.074;2023-04-24T13:10:48;6.57;;;2.20;;
17618;SDS011;8928;51.678;6.074;2023-04-24T13:13:37;7.50;;;2.03;;
17618;SDS011;8928;51.678;6.074;2023-04-24T13:16:24;7.33;;;2.43;;
17618;SDS011;8928;51.678;6.074;2023-04-24T13:19:11;11.80;;;3.40;;
17618;SDS011;8928;51.678;6.074;2023-04-24T13:21:58;5.37;;;2.90;;
17618;SDS011;8928;51.678;6.074;2023-04-24T13:24:45;11.40;;;3.00;;
17618;SDS011;8928;51.678;6.074;2023-04-24T13:27:34;10.57;;;2.50;;
17618;SDS011;8928;51.678;6.074;2023-04-24T13:30:23;8.37;;;2.83;;
17618;SDS011;8928;51.678;6.074;2023-04-24T13:33:10;9.23;;;2.90;;
17618;SDS011;8928;51.678;6.074;2023-04-24T13:35:57;7.73;;;2.27;;
17618;SDS011;8928;51.678;6.074;2023-04-24T13:38:44;6.13;;;1.97;;
17618;SDS011;8928;51.678;6.074;2023-04-24T13:41:32;7.77;;;2.37;;
17618;SDS011;8928;51.678;6.074;2023-04-24T13:44:19;6.83;;;2.30;;
17618;SDS011;8928;51.678;6.074;2023-04-24T13:47:09;4.00;;;1.33;;
17618;SDS011;8928;51.678;6.074;2023-04-24T13:49:56;4.03;;;1.50;;
17618;SDS011;8928;51.678;6.074;2023-04-24T13:52:43;4.50;;;1.60;;
17618;SDS011;8928;51.678;6.074;2023-04-24T13:55:30;4.50;;;1.30;;
17618;SDS011;8928;51.678;6.074;2023-04-24T13:58:17;7.27;;;1.20;;
17618;SDS011;8928;51.678;6.074;2023-04-24T14:01:04;3.70;;;1.17;;
17618;SDS011;8928;51.678;6.074;2023-04-24T14:03:53;3.27;;;1.10;;
17618;SDS011;8928;51.678;6.074;2023-04-24T14:06:41;7.90;;;1.33;;
17618;SDS011;8928;51.678;6.074;2023-04-24T14:09:28;4.93;;;1.50;;
17618;SDS011;8928;51.678;6.074;2023-04-24T14:12:15;4.47;;;1.40;;
17618;SDS011;8928;51.678;6.074;2023-04-24T14:15:05;9.53;;;1.97;;
17618;SDS011;8928;51.678;6.074;2023-04-24T14:17:54;5.83;;;2.20;;
17618;SDS011;8928;51.678;6.074;2023-04-24T14:20:42;7.53;;;1.83;;
17618;SDS011;8928;51.678;6.074;2023-04-24T14:23:29;5.73;;;2.10;;
17618;SDS011;8928;51.678;6.074;2023-04-24T14:26:16;5.93;;;2.20;;
17618;SDS011;8928;51.678;6.074;2023-04-24T14:29:03;8.63;;;2.30;;
17618;SDS011;8928;51.678;6.074;2023-04-24T14:31:51;5.77;;;2.40;;
17618;SDS011;8928;51.678;6.074;2023-04-24T14:34:38;6.60;;;2.60;;
17618;SDS011;8928;51.678;6.074;2023-04-24T14:37:26;8.90;;;2.90;;
17618;SDS011;8928;51.678;6.074;2023-04-24T14:40:13;8.17;;;2.57;;
17618;SDS011;8928;51.678;6.074;2023-04-24T14:43:00;11.37;;;3.00;;
17618;SDS011;8928;51.678;6.074;2023-04-24T14:45:47;7.53;;;3.00;;
17618;SDS011;8928;51.678;6.074;2023-04-24T14:48:35;10.63;;;3.20;;
17618;SDS011;8928;51.678;6.074;2023-04-24T14:51:22;7.37;;;2.30;;
17618;SDS011;8928;51.678;6.074;2023-04-24T14:54:10;8.43;;;2.13;;
17618;SDS011;8928;51.678;6.074;2023-04-24T14:56:59;9.17;;;2.50;;
17618;SDS011;8928;51.678;6.074;2023-04-24T14:59:46;11.10;;;2.50;;
17618;SDS011;8928;51.678;6.074;2023-04-24T15:02:33;7.53;;;2.30;;
17618;SDS011;8928;51.678;6.074;2023-04-24T15:05:22;5.67;;;2.37;;
17618;SDS011;8928;51.678;6.074;2023-04-24T15:08:10;9.57;;;3.17;;
17618;SDS011;8928;51.678;6.074;2023-04-24T15:10:58;7.20;;;2.40;;
17618;SDS011;8928;51.678;6.074;2023-04-24T15:13:45;9.33;;;2.60;;
17618;SDS011;8928;51.678;6.074;2023-04-24T15:16:32;10.13;;;3.30;;
17618;SDS011;8928;51.678;6.074;2023-04-24T15:19:19;7.13;;;2.20;;
17618;SDS011;8928;51.678;6.074;2023-04-24T15:22:06;10.30;;;3.10;;
17618;SDS011;8928;51.678;6.074;2023-04-24T15:24:53;9.13;;;2.93;;
17618;SDS011;8928;51.678;6.074;2023-04-24T15:27:43;8.30;;;3.20;;
17618;SDS011;8928;51.678;6.074;2023-04-24T15:30:31;16.10;;;4.10;;
17618;SDS011;8928;51.678;6.074;2023-04-24T15:33:18;15.90;;;4.50;;
17618;SDS011;8928;51.678;6.074;2023-04-24T15:36:06;8.70;;;3.10;;
17618;SDS011;8928;51.678;6.074;2023-04-24T15:38:53;7.83;;;3.07;;
17618;SDS011;8928;51.678;6.074;2023-04-24T15:41:40;8.67;;;3.63;;
17618;SDS011;8928;51.678;6.074;2023-04-24T15:44:28;10.83;;;3.37;;
17618;SDS011;8928;51.678;6.074;2023-04-24T15:47:15;9.37;;;2.50;;
17618;SDS011;8928;51.678;6.074;2023-04-24T15:50:03;7.33;;;2.50;;
17618;SDS011;8928;51.678;6.074;2023-04-24T15:52:50;6.47;;;2.80;;
17618;SDS011;8928;51.678;6.074;2023-04-24T15:55:37;6.83;;;3.07;;
17618;SDS011;8928;51.678;6.074;2023-04-24T15:58:24;7.83;;;2.97;;
17618;SDS011;8928;51.678;6.074;2023-04-24T16:01:13;10.07;;;2.37;;
17618;SDS011;8928;51.678;6.074;2023-04-24T16:04:01;9.10;;;2.10;;
17618;SDS011;8928;51.678;6.074;2023-04-24T16:06:48;6.70;;;2.00;;
17618;SDS011;8928;51.678;6.074;2023-04-24T16:09:35;9.27;;;2.33;;
17618;SDS011;8928;51.678;6.074;2023-04-24T16:12:22;10.20;;;2.30;;
17618;SDS011;8928;51.678;6.074;2023-04-24T16:15:12;15.27;;;2.70;;
17618;SDS011;8928;51.678;6.074;2023-04-24T16:18:00;18.27;;;3.60;;
17618;SDS011;8928;51.678;6.074;2023-04-24T16:20:47;12.57;;;3.10;;
17618;SDS011;8928;51.678;6.074;2023-04-24T16:23:34;15.93;;;3.30;;
17618;SDS011;8928;51.678;6.074;2023-04-24T16:26:21;9.67;;;2.80;;
17618;SDS011;8928;51.678;6.074;2023-04-24T16:29:08;10.07;;;3.33;;
17618;SDS011;8928;51.678;6.074;2023-04-24T16:31:55;9.00;;;2.97;;
17618;SDS011;8928;51.678;6.074;2023-04-24T16:34:44;10.57;;;2.90;;
17618;SDS011;8928;51.678;6.074;2023-04-24T16:37:31;9.33;;;3.00;;
17618;SDS011;8928;51.678;6.074;2023-04-24T16:40:18;11.00;;;3.30;;
17618;SDS011;8928;51.678;6.074;2023-04-24T16:43:05;12.27;;;3.53;;
17618;SDS011;8928;51.678;6.074;2023-04-24T16:45:53;16.23;;;3.73;;
17618;SDS011;8928;51.678;6.074;2023-04-24T16:48:40;13.23;;;3.80;;
17618;SDS011;8928;51.678;6.074;2023-04-24T16:51:28;12.20;;;4.07;;
17618;SDS011;8928;51.678;6.074;2023-04-24T16:54:16;14.87;;;4.13;;
17618;SDS011;8928;51.678;6.074;2023-04-24T16:57:03;10.60;;;3.53;;